Terminal Aerodrome Forecast
Issued by NWS Wilmington, OH

Current Version | Previous Version | Graphics & Text | Print | Product List | Glossary On
Versions: 1 2 3 4 5 6 7 8 9 10 11 12 13 14 15 16 17 18 19
478
FTUS41 KILN 280531
TAFDAY
TAF
KDAY 280531Z 2806/2906 18007KT P6SM FEW050 SCT250
     FM281500 21012KT P6SM VCSH BKN040 OVC200
     FM282100 21012KT P6SM BKN040 OVC200
     FM290000 21006KT P6SM BKN150=

USA.gov is the U.S. government's official web portal to all federal, state and local government web resources and services.